AIRPORT ID: KAGZ

DATE: 2023-12-11 ZULU TIME: 11.55 LOCAL TIME: 5.55


METAR KAGZ 111155Z AUTO 00000KT 10SM M06/M07 A2996

ALTIMETER: A2996 Q1015

DENSITY ALT: -500 Ft

WIND DIRECT: 170

WIND SPEED: 0 Gust

WIND CONDITIONS:

VISIBILTY: 10SM 9999M

TEMPERATURE: 22 F -6 C

DEW POINT: 20 F -7 C

HUMID: 94%

LCL: Under 500 feet

RADIO CHECK: 0

ADVISARIES: 0

GREETINGS: 0

CONVERSATIONS: 0